Terminal Aerodrome Forecast
Issued by NWS

Home | Current Version | Previous Version | Text Only | Print | Product List | Glossary Off
Versions: 1 2 3 4 5 6 7 8 9 10 11 12 13 14 15 16 17 18 19

000
FTUS43 KAPX 202200 AAA
TAFTVC
TAF AMD
KTVC 202201Z 2022/2118 32008KT P6SM SCT012 OVC022
     FM211400 02010KT P6SM OVC020=

USA.gov is the U.S. government's official web portal to all federal, state and local government web resources and services.